createdAt,value
2018-02-24T00:02:26.113Z,100856.05
2018-02-24T00:04:53.540Z,100857.84
2018-02-24T00:07:20.979Z,100856.36
2018-02-24T00:09:48.390Z,100861.27
2018-02-24T00:12:15.813Z,100863.00
2018-02-24T00:14:43.230Z,100863.59
2018-02-24T00:17:10.648Z,100863.00
2018-02-24T00:19:38.067Z,100873.94
2018-02-24T00:22:05.509Z,100873.69
2018-02-24T00:24:32.913Z,100870.47
2018-02-24T00:27:00.326Z,100871.84
2018-02-24T00:29:27.753Z,100863.53
2018-02-24T00:31:55.170Z,100865.62
2018-02-24T00:34:22.592Z,100864.95
2018-02-24T00:36:50.007Z,100858.95
2018-02-24T00:39:17.441Z,100861.20
2018-02-24T00:41:44.858Z,100868.93
2018-02-24T00:44:12.270Z,100870.34
2018-02-24T00:46:39.699Z,100863.80
2018-02-24T00:49:07.114Z,100873.96
2018-02-24T00:51:34.549Z,100875.69
2018-02-24T00:54:01.968Z,100872.17
2018-02-24T00:56:29.385Z,100872.25
2018-02-24T00:58:56.809Z,100867.86
2018-02-24T01:01:24.233Z,100873.08
2018-02-24T01:03:51.651Z,100870.75
2018-02-24T01:06:19.069Z,100876.45
2018-02-24T01:08:46.502Z,100876.15
2018-02-24T01:11:13.921Z,100877.45
2018-02-24T01:13:41.334Z,100878.59
2018-02-24T01:16:08.770Z,100869.64
2018-02-24T01:18:36.202Z,100860.45
2018-02-24T01:21:03.658Z,100866.63
2018-02-24T01:23:31.075Z,100865.06
2018-02-24T01:25:58.507Z,100865.41
2018-02-24T01:28:25.933Z,100871.89
2018-02-24T01:30:53.358Z,100874.25
2018-02-24T01:33:20.790Z,100873.12
2018-02-24T01:35:48.215Z,100873.64
2018-02-24T01:38:15.630Z,100873.18
2018-02-24T01:40:43.070Z,100871.72
2018-02-24T01:43:10.480Z,100876.17
2018-02-24T01:45:37.909Z,100881.09
2018-02-24T01:48:05.329Z,100882.92
2018-02-24T01:50:41.616Z,100882.05
2018-02-24T01:53:09.049Z,100896.21
2018-02-24T01:55:36.462Z,100887.50
2018-02-24T01:58:03.882Z,100894.84
2018-02-24T02:00:31.298Z,100893.31
2018-02-24T02:02:58.722Z,100888.59
2018-02-24T02:05:26.163Z,100885.52
2018-02-24T02:07:53.594Z,100877.53
2018-02-24T02:10:21.011Z,100884.45
2018-02-24T02:12:48.427Z,100883.80
2018-02-24T02:15:15.857Z,100878.19
2018-02-24T02:17:43.273Z,100880.12
2018-02-24T02:20:10.701Z,100875.78
2018-02-24T02:22:38.104Z,100872.84
2018-02-24T02:25:05.533Z,100878.98
2018-02-24T02:27:32.974Z,100875.16
2018-02-24T02:30:00.390Z,100879.40
2018-02-24T02:32:27.827Z,100878.91
2018-02-24T02:35:01.249Z,100875.35
2018-02-24T02:37:28.690Z,100883.23
2018-02-24T02:39:56.102Z,100880.86
2018-02-24T02:42:23.541Z,100885.00
2018-02-24T02:44:50.950Z,100879.06
2018-02-24T02:47:18.366Z,100887.66
2018-02-24T02:49:45.795Z,100884.11
2018-02-24T02:52:13.203Z,100887.34
2018-02-24T02:54:40.629Z,100889.48
2018-02-24T02:57:08.100Z,100899.65
2018-02-24T02:59:35.489Z,100895.53
2018-02-24T03:02:02.911Z,100885.64
2018-02-24T03:04:30.327Z,100895.17
2018-02-24T03:06:57.752Z,100891.41
2018-02-24T03:09:25.171Z,100889.25
2018-02-24T03:11:52.594Z,100890.36
2018-02-24T03:14:20.020Z,100896.72
2018-02-24T03:16:47.430Z,100891.16
2018-02-24T03:19:14.854Z,100889.22
2018-02-24T03:21:42.273Z,100884.20
2018-02-24T03:24:09.706Z,100881.77
2018-02-24T03:26:37.122Z,100878.24
2018-02-24T03:29:04.555Z,100879.81
2018-02-24T03:31:32.055Z,100884.37
2018-02-24T03:33:59.397Z,100888.64
2018-02-24T03:36:26.826Z,100890.13
2018-02-24T03:38:54.243Z,100895.37
2018-02-24T03:41:21.686Z,100896.42
2018-02-24T03:43:49.115Z,100896.65
2018-02-24T03:46:22.053Z,100907.18
2018-02-24T03:48:49.469Z,100906.82
2018-02-24T03:51:16.890Z,100914.36
2018-02-24T03:53:44.315Z,100919.02
2018-02-24T03:56:11.726Z,100921.00
2018-02-24T03:58:39.162Z,100915.70
2018-02-24T04:01:06.578Z,100916.76
2018-02-24T04:03:34.000Z,100919.27
2018-02-24T04:06:01.422Z,100914.50
2018-02-24T04:08:28.838Z,100913.05
2018-02-24T04:10:56.284Z,100909.92
2018-02-24T04:13:23.714Z,100911.19
2018-02-24T04:15:51.183Z,100918.51
2018-02-24T04:18:18.600Z,100920.50
2018-02-24T04:20:46.018Z,100924.08
2018-02-24T04:23:13.446Z,100926.98
2018-02-24T04:25:40.874Z,100920.11
2018-02-24T04:28:08.294Z,100927.66
2018-02-24T04:30:35.710Z,100926.72
2018-02-24T04:33:03.156Z,100927.45
2018-02-24T04:35:30.586Z,100937.80
2018-02-24T04:37:57.997Z,100931.23
2018-02-24T04:40:25.421Z,100938.44
2018-02-24T04:42:52.837Z,100936.98
2018-02-24T04:45:20.262Z,100939.00
2018-02-24T04:47:47.682Z,100940.06
2018-02-24T04:50:15.128Z,100939.84
2018-02-24T04:52:42.546Z,100940.81
2018-02-24T04:55:09.965Z,100940.23
2018-02-24T04:57:37.392Z,100937.53
2018-02-24T05:00:04.805Z,100933.42
2018-02-24T05:02:32.229Z,100939.08
2018-02-24T05:04:59.646Z,100930.82
2018-02-24T05:07:27.080Z,100929.09
2018-02-24T05:09:54.497Z,100926.90
2018-02-24T05:12:21.923Z,100927.23
2018-02-24T05:14:49.342Z,100938.64
2018-02-24T05:17:16.769Z,100936.96
2018-02-24T05:19:44.194Z,100942.73
2018-02-24T05:22:11.603Z,100949.03
2018-02-24T05:24:39.056Z,100952.45
2018-02-24T05:27:06.471Z,100953.87
2018-02-24T05:29:33.885Z,100952.50
2018-02-24T05:32:01.311Z,100948.70
2018-02-24T05:34:28.726Z,100946.71
2018-02-24T05:36:56.161Z,100951.02
2018-02-24T05:39:23.578Z,100947.77
2018-02-24T05:41:51.019Z,100943.57
2018-02-24T05:44:18.445Z,100944.94
2018-02-24T05:46:45.870Z,100950.98
2018-02-24T05:49:13.287Z,100952.08
2018-02-24T05:51:40.714Z,100956.91
2018-02-24T05:54:08.133Z,100960.04
2018-02-24T05:56:35.546Z,100958.02
2018-02-24T05:59:02.982Z,100959.22
2018-02-24T06:01:30.400Z,100959.63
2018-02-24T06:03:57.822Z,100956.80
2018-02-24T06:06:25.251Z,100965.52
2018-02-24T06:08:52.672Z,100970.00
2018-02-24T06:11:20.089Z,100968.19
2018-02-24T06:13:47.510Z,100969.63
2018-02-24T06:16:14.974Z,100975.93
2018-02-24T06:18:42.404Z,100972.96
2018-02-24T06:21:09.822Z,100972.54
2018-02-24T06:23:37.250Z,100973.97
2018-02-24T06:26:04.666Z,100977.02
2018-02-24T06:28:32.086Z,100976.05
2018-02-24T06:30:59.506Z,100982.77
2018-02-24T06:33:26.942Z,100979.55
2018-02-24T06:35:54.373Z,100974.69
2018-02-24T06:38:21.782Z,100970.59
2018-02-24T06:40:49.206Z,100979.63
2018-02-24T06:43:16.624Z,100981.30
2018-02-24T06:45:44.062Z,100976.16
2018-02-24T06:48:11.486Z,100976.47
2018-02-24T06:50:38.914Z,100978.83
2018-02-24T06:53:16.303Z,100988.12
2018-02-24T06:55:43.774Z,100983.56
2018-02-24T06:58:11.190Z,100983.91
2018-02-24T07:00:38.610Z,100988.78
2018-02-24T07:03:06.039Z,100993.54
2018-02-24T07:05:33.454Z,101000.62
2018-02-24T07:08:00.879Z,101005.28
2018-02-24T07:10:28.294Z,100996.66
2018-02-24T07:12:55.750Z,101000.34
2018-02-24T07:15:23.158Z,100995.64
2018-02-24T07:17:50.595Z,100986.52
2018-02-24T07:20:18.009Z,100999.41
2018-02-24T07:22:45.430Z,101006.13
2018-02-24T07:25:12.874Z,101008.27
2018-02-24T07:27:40.295Z,101007.47
2018-02-24T07:30:07.714Z,101006.09
2018-02-24T07:32:35.138Z,101008.73
2018-02-24T07:35:02.571Z,101010.12
2018-02-24T07:37:29.999Z,101015.72
2018-02-24T07:39:57.415Z,101014.53
2018-02-24T07:42:24.835Z,101015.92
2018-02-24T07:44:52.265Z,101014.22
2018-02-24T07:47:19.674Z,101011.02
2018-02-24T07:49:47.142Z,101014.11
2018-02-24T07:52:14.557Z,101020.34
2018-02-24T07:54:41.982Z,101014.70
2018-02-24T07:57:09.410Z,101013.68
2018-02-24T07:59:36.826Z,101019.87
2018-02-24T08:02:04.266Z,101023.73
2018-02-24T08:04:31.678Z,101020.33
2018-02-24T08:06:59.101Z,101024.78
2018-02-24T08:09:26.517Z,101021.14
2018-02-24T08:11:53.929Z,101019.89
2018-02-24T08:14:21.370Z,101022.00
2018-02-24T08:16:48.782Z,101028.78
2018-02-24T08:19:16.193Z,101036.13
2018-02-24T08:21:43.629Z,101028.70
2018-02-24T08:24:11.042Z,101031.55
2018-02-24T08:26:38.475Z,101036.19
2018-02-24T08:29:05.883Z,101039.41
2018-02-24T08:31:33.299Z,101039.30
2018-02-24T08:34:00.723Z,101040.64
2018-02-24T08:36:28.138Z,101048.97
2018-02-24T08:38:55.566Z,101036.84
2018-02-24T08:41:22.978Z,101041.30
2018-02-24T08:43:50.386Z,101038.31
2018-02-24T08:46:17.813Z,101039.36
2018-02-24T08:48:45.236Z,101035.70
2018-02-24T08:51:12.658Z,101037.09
2018-02-24T08:53:40.078Z,101034.00
2018-02-24T08:56:07.499Z,101042.83
2018-02-24T08:58:34.933Z,101044.58
2018-02-24T09:01:02.365Z,101057.37
2018-02-24T09:03:29.774Z,101055.28
2018-02-24T09:05:57.206Z,101055.80
2018-02-24T09:08:24.624Z,101058.52
2018-02-24T09:10:52.038Z,101068.22
2018-02-24T09:13:19.498Z,101071.53
2018-02-24T09:15:46.922Z,101070.31
2018-02-24T09:18:14.341Z,101071.10
2018-02-24T09:20:41.844Z,101071.11
2018-02-24T09:23:09.262Z,101073.45
2018-02-24T09:25:36.738Z,101078.35
2018-02-24T09:28:04.182Z,101077.46
2018-02-24T09:30:31.606Z,101063.81
2018-02-24T09:32:59.032Z,101078.84
2018-02-24T09:35:26.469Z,101089.19
2018-02-24T09:37:53.885Z,101075.88
2018-02-24T09:40:21.318Z,101080.99
2018-02-24T09:42:48.742Z,101079.00
2018-02-24T09:45:16.158Z,101072.64
2018-02-24T09:47:43.594Z,101073.87
2018-02-24T09:50:11.031Z,101087.67
2018-02-24T09:52:38.453Z,101080.45
2018-02-24T09:55:05.880Z,101089.31
2018-02-24T09:57:37.305Z,101091.69
2018-02-24T10:00:04.717Z,101095.25
2018-02-24T10:02:32.156Z,101090.90
2018-02-24T10:04:59.586Z,101095.48
2018-02-24T10:07:27.001Z,101082.50
2018-02-24T10:09:54.421Z,101087.19
2018-02-24T10:12:21.862Z,101097.31
2018-02-24T10:14:49.326Z,101107.77
2018-02-24T10:17:16.751Z,101109.94
2018-02-24T10:19:44.178Z,101104.13
2018-02-24T10:22:11.622Z,101109.60
2018-02-24T10:24:39.035Z,101114.20
2018-02-24T10:27:06.465Z,101112.05
2018-02-24T10:29:33.891Z,101121.69
2018-02-24T10:32:01.336Z,101126.06
2018-02-24T10:34:28.754Z,101118.23
2018-02-24T10:36:56.171Z,101116.14
2018-02-24T10:39:23.581Z,101117.97
2018-02-24T10:41:51.008Z,101123.55
2018-02-24T10:44:18.535Z,101114.36
2018-02-24T10:46:45.943Z,101118.78
2018-02-24T10:49:14.914Z,101108.92
2018-02-24T10:51:42.327Z,101111.35
2018-02-24T10:54:09.747Z,101110.83
2018-02-24T10:56:37.175Z,101113.39
2018-02-24T10:59:05.574Z,101110.37
2018-02-24T11:01:32.997Z,101114.34
2018-02-24T11:04:00.421Z,101107.52
2018-02-24T11:06:28.006Z,101113.25
2018-02-24T11:08:55.414Z,101114.64
2018-02-24T11:11:22.870Z,101109.87
2018-02-24T11:13:50.266Z,101105.36
2018-02-24T11:16:17.699Z,101106.94
2018-02-24T11:18:45.155Z,101098.47
2018-02-24T11:21:12.602Z,101101.45
2018-02-24T11:23:40.054Z,101091.98
2018-02-24T11:26:07.494Z,101097.46
2018-02-24T11:28:34.986Z,101108.65
2018-02-24T11:31:02.410Z,101105.92
2018-02-24T11:33:29.865Z,101097.27
2018-02-24T11:35:57.281Z,101100.44
2018-02-24T11:38:24.697Z,101102.48
2018-02-24T11:40:52.122Z,101109.10
2018-02-24T11:43:19.604Z,101100.44
2018-02-24T11:45:47.018Z,101103.18
2018-02-24T11:48:14.447Z,101103.77
2018-02-24T11:50:41.862Z,101105.49
2018-02-24T11:53:09.299Z,101099.88
2018-02-24T11:55:36.740Z,101105.75
2018-02-24T11:58:04.138Z,101093.11
2018-02-24T12:00:31.550Z,101102.89
2018-02-24T12:03:00.015Z,101093.15
2018-02-24T12:05:27.504Z,101093.88
2018-02-24T12:07:55.030Z,101095.52
2018-02-24T12:10:22.478Z,101091.76
2018-02-24T12:12:49.889Z,101098.06
2018-02-24T12:15:17.299Z,101091.56
2018-02-24T12:17:44.757Z,101095.00
2018-02-24T12:20:12.207Z,101094.05
2018-02-24T12:22:39.643Z,101093.34
2018-02-24T12:25:07.071Z,101092.78
2018-02-24T12:27:34.500Z,101094.58
2018-02-24T12:30:01.918Z,101089.86
2018-02-24T12:32:29.354Z,101097.04
2018-02-24T12:34:56.766Z,101096.02
2018-02-24T12:37:24.188Z,101085.57
2018-02-24T12:39:51.675Z,101080.41
2018-02-24T12:42:19.089Z,101089.56
2018-02-24T12:44:46.505Z,101080.05
2018-02-24T12:47:13.930Z,101077.95
2018-02-24T12:49:41.512Z,101084.41
2018-02-24T12:52:08.774Z,101082.34
2018-02-24T12:54:36.201Z,101081.58
2018-02-24T12:57:03.619Z,101076.14
2018-02-24T12:59:31.030Z,101077.64
2018-02-24T13:01:58.594Z,101079.95
2018-02-24T13:04:26.293Z,101084.98
2018-02-24T13:06:54.197Z,101076.72
2018-02-24T13:09:21.642Z,101073.31
2018-02-24T13:11:49.059Z,101070.19
2018-02-24T13:14:16.524Z,101068.75
2018-02-24T13:16:44.046Z,101071.41
2018-02-24T13:19:11.455Z,101073.74
2018-02-24T13:21:38.870Z,101071.10
2018-02-24T13:24:06.298Z,101072.47
2018-02-24T13:26:33.716Z,101075.17
2018-02-24T13:29:01.126Z,101072.91
2018-02-24T13:31:28.586Z,101082.53
2018-02-24T13:33:56.114Z,101085.05
2018-02-24T13:36:23.530Z,101079.37
2018-02-24T13:38:50.963Z,101090.05
2018-02-24T13:41:18.374Z,101079.30
2018-02-24T13:43:45.803Z,101092.05
2018-02-24T13:46:13.216Z,101088.81
2018-02-24T13:48:40.635Z,101094.70
2018-02-24T13:51:08.046Z,101084.50
2018-02-24T13:53:35.474Z,101086.24
2018-02-24T13:56:02.881Z,101084.41
2018-02-24T13:58:30.289Z,101081.81
2018-02-24T14:00:57.739Z,101089.27
2018-02-24T14:03:25.149Z,101092.08
2018-02-24T14:05:52.571Z,101099.50
2018-02-24T14:08:19.998Z,101091.44
2018-02-24T14:10:47.419Z,101095.89
2018-02-24T14:13:14.831Z,101098.05
2018-02-24T14:15:42.257Z,101090.14
2018-02-24T14:18:09.683Z,101097.00
2018-02-24T14:20:37.819Z,101103.23
2018-02-24T14:23:05.273Z,101103.02
2018-02-24T14:25:33.545Z,101076.73
2018-02-24T14:28:00.989Z,101096.33
2018-02-24T14:30:28.420Z,101096.23
2018-02-24T14:32:55.852Z,101090.73
2018-02-24T14:35:23.298Z,101099.30
2018-02-24T14:37:50.754Z,101099.20
2018-02-24T14:40:18.174Z,101110.08
2018-02-24T14:42:45.648Z,101111.59
2018-02-24T14:45:13.129Z,101104.92
2018-02-24T14:47:40.514Z,101109.05
2018-02-24T14:50:08.040Z,101102.25
2018-02-24T14:52:35.828Z,101110.00
2018-02-24T14:55:03.251Z,101113.36
2018-02-24T14:57:30.675Z,101115.38
2018-02-24T14:59:58.103Z,101118.89
2018-02-24T15:02:26.717Z,101114.94
2018-02-24T15:04:54.377Z,101110.63
2018-02-24T15:07:21.828Z,101121.67
2018-02-24T15:09:49.251Z,101120.70
2018-02-24T15:12:16.682Z,101125.08
2018-02-24T15:14:44.110Z,101127.88
2018-02-24T15:17:11.520Z,101125.37
2018-02-24T15:19:38.954Z,101141.52
2018-02-24T15:22:06.382Z,101128.25
2018-02-24T15:24:33.796Z,101123.10
2018-02-24T15:27:01.214Z,101114.64
2018-02-24T15:29:28.662Z,101116.13
2018-02-24T15:31:56.079Z,101127.97
2018-02-24T15:34:23.502Z,101127.27
2018-02-24T15:36:50.939Z,101132.97
2018-02-24T15:39:18.367Z,101134.58
2018-02-24T15:41:45.782Z,101141.52
2018-02-24T15:44:13.250Z,101139.94
2018-02-24T15:46:40.654Z,101142.66
2018-02-24T15:49:08.087Z,101143.51
2018-02-24T15:51:36.557Z,101150.06
2018-02-24T15:54:04.063Z,101138.84
2018-02-24T15:56:31.665Z,101148.68
2018-02-24T15:58:59.126Z,101150.20
2018-02-24T16:01:26.555Z,101153.52
2018-02-24T16:03:53.974Z,101148.61
2018-02-24T16:06:21.411Z,101158.30
2018-02-24T16:08:50.903Z,101157.20
2018-02-24T16:13:57.374Z,101156.59
2018-02-24T16:16:30.170Z,101166.35
2018-02-24T16:19:00.691Z,101167.88
2018-02-24T16:21:31.461Z,101163.36
2018-02-24T16:23:58.894Z,101163.70
2018-02-24T16:26:26.346Z,101167.93
2018-02-24T16:28:53.771Z,101160.64
2018-02-24T16:31:21.219Z,101167.30
2018-02-24T16:33:48.986Z,101175.87
2018-02-24T16:36:16.408Z,101170.00
2018-02-24T16:38:43.827Z,101179.95
2018-02-24T16:41:11.279Z,101183.66
2018-02-24T16:43:38.700Z,101183.00
2018-02-24T16:46:06.115Z,101184.98
2018-02-24T16:48:33.795Z,101184.03
2018-02-24T16:51:01.206Z,101181.50
2018-02-24T16:53:28.623Z,101185.64
2018-02-24T16:55:56.078Z,101189.31
2018-02-24T16:58:23.498Z,101193.91
2018-02-24T17:00:50.939Z,101191.77
2018-02-24T17:03:18.382Z,101189.70
2018-02-24T17:05:45.808Z,101198.66
2018-02-24T17:08:13.551Z,101192.93
2018-02-24T17:10:45.235Z,101198.43
2018-02-24T17:13:12.678Z,101202.17
2018-02-24T17:15:40.109Z,101198.70
2018-02-24T17:18:07.553Z,101201.64
2018-02-24T17:20:34.970Z,101206.51
2018-02-24T17:23:03.091Z,101206.27
2018-02-24T17:25:30.527Z,101211.77
2018-02-24T17:27:57.939Z,101218.72
2018-02-24T17:30:25.362Z,101215.20
2018-02-24T17:32:52.790Z,101217.25
2018-02-24T17:35:21.226Z,101211.83
2018-02-24T17:37:48.651Z,101216.97
2018-02-24T17:40:16.100Z,101219.59
2018-02-24T17:42:43.550Z,101220.31
2018-02-24T17:45:10.958Z,101222.77
2018-02-24T17:47:38.403Z,101226.33
2018-02-24T17:50:05.927Z,101224.20
2018-02-24T17:52:33.373Z,101223.70
2018-02-24T17:55:00.798Z,101231.05
2018-02-24T17:57:30.090Z,101223.14
2018-02-24T17:59:58.510Z,101228.91
2018-02-24T18:02:29.086Z,101227.70
2018-02-24T18:04:57.212Z,101228.19
2018-02-24T18:07:27.370Z,101228.09
2018-02-24T18:09:56.127Z,101242.11
2018-02-24T18:12:24.445Z,101243.52
2018-02-24T18:14:54.688Z,101231.70
2018-02-24T18:17:24.681Z,101243.96
2018-02-24T18:19:52.715Z,101238.36
2018-02-24T18:22:20.536Z,101237.81
2018-02-24T18:24:48.266Z,101241.12
2018-02-24T18:27:28.207Z,101235.31
2018-02-24T18:29:55.647Z,101246.34
2018-02-24T18:32:23.091Z,101250.72
2018-02-24T18:34:51.941Z,101248.20
2018-02-24T18:37:19.601Z,101245.84
2018-02-24T18:39:47.313Z,101244.38
2018-02-24T18:42:15.096Z,101248.70
2018-02-24T18:44:42.787Z,101248.06
2018-02-24T18:47:10.437Z,101245.75
2018-02-24T18:49:38.256Z,101237.28
2018-02-24T18:52:05.915Z,101237.56
2018-02-24T18:54:33.570Z,101241.30
2018-02-24T18:57:01.299Z,101245.66
2018-02-24T18:59:28.960Z,101250.00
2018-02-24T19:01:56.805Z,101245.34
2018-02-24T19:04:24.472Z,101242.70
2018-02-24T19:06:52.165Z,101247.09
2018-02-24T19:09:19.840Z,101250.05
2018-02-24T19:11:47.691Z,101256.02
2018-02-24T19:14:16.231Z,101252.58
2018-02-24T19:16:43.895Z,101253.67
2018-02-24T19:19:11.377Z,101259.06
2018-02-24T19:21:38.801Z,101252.75
2018-02-24T19:24:06.238Z,101253.93
2018-02-24T19:26:33.681Z,101258.78
2018-02-24T19:29:01.111Z,101266.05
2018-02-24T19:31:28.534Z,101266.58
2018-02-24T19:33:55.975Z,101267.99
2018-02-24T19:36:23.404Z,101267.47
2018-02-24T19:38:50.847Z,101268.48
2018-02-24T19:41:18.302Z,101267.43
2018-02-24T19:43:45.719Z,101270.83
2018-02-24T19:46:13.185Z,101267.72
2018-02-24T19:48:40.622Z,101271.58
2018-02-24T19:51:08.094Z,101274.23
2018-02-24T19:53:35.510Z,101285.89
2018-02-24T19:56:02.941Z,101280.01
2018-02-24T19:58:30.458Z,101277.74
2018-02-24T20:00:57.909Z,101281.67
2018-02-24T20:03:25.338Z,101279.83
2018-02-24T20:05:52.754Z,101282.09
2018-02-24T20:08:20.166Z,101280.30
2018-02-24T20:10:48.522Z,101284.75
2018-02-24T20:13:15.915Z,101282.45
2018-02-24T20:15:44.306Z,101280.54
2018-02-24T20:18:11.782Z,101275.78
2018-02-24T20:20:39.153Z,101283.77
2018-02-24T20:23:06.579Z,101291.48
2018-02-24T20:25:34.011Z,101287.97
2018-02-24T20:28:01.526Z,101283.28
2018-02-24T20:30:28.960Z,101284.81
2018-02-24T20:32:56.418Z,101288.34
2018-02-24T20:35:24.835Z,101290.19
2018-02-24T20:37:52.263Z,101289.69
2018-02-24T20:40:19.703Z,101287.45
2018-02-24T20:42:47.111Z,101296.86
2018-02-24T20:45:14.530Z,101287.73
2018-02-24T20:47:42.297Z,101295.13
2018-02-24T20:50:09.712Z,101296.47
2018-02-24T20:52:37.128Z,101295.75
2018-02-24T20:55:04.577Z,101305.28
2018-02-24T20:57:31.990Z,101298.56
2018-02-24T20:59:59.403Z,101310.98
2018-02-24T21:02:26.849Z,101306.17
2018-02-24T21:04:54.254Z,101320.14
2018-02-24T21:07:21.665Z,101320.10
2018-02-24T21:09:49.426Z,101315.63
2018-02-24T21:12:16.841Z,101319.67
2018-02-24T21:14:44.272Z,101319.50
2018-02-24T21:17:11.706Z,101318.13
2018-02-24T21:19:39.124Z,101320.25
2018-02-24T21:22:06.535Z,101324.38
2018-02-24T21:24:33.975Z,101322.36
2018-02-24T21:27:01.394Z,101326.09
2018-02-24T21:29:28.830Z,101323.91
2018-02-24T21:31:56.250Z,101329.87
2018-02-24T21:34:23.678Z,101329.42
2018-02-24T21:36:51.102Z,101336.03
2018-02-24T21:39:18.560Z,101333.03
2018-02-24T21:41:45.966Z,101323.88
2018-02-24T21:44:13.390Z,101318.45
2018-02-24T21:46:40.819Z,101325.59
2018-02-24T21:49:08.252Z,101325.30
2018-02-24T21:51:35.677Z,101330.45
2018-02-24T21:54:03.126Z,101330.62
2018-02-24T21:56:30.543Z,101327.49
2018-02-24T21:58:57.972Z,101334.97
2018-02-24T22:01:25.401Z,101325.75
2018-02-24T22:03:52.822Z,101331.90
2018-02-24T22:06:20.238Z,101327.66
2018-02-24T22:08:47.667Z,101327.33
2018-02-24T22:11:15.079Z,101330.86
2018-02-24T22:13:42.493Z,101333.54
2018-02-24T22:16:09.913Z,101332.95
2018-02-24T22:18:37.338Z,101327.65
2018-02-24T22:21:04.762Z,101332.59
2018-02-24T22:23:32.202Z,101337.08
2018-02-24T22:25:59.614Z,101338.67
2018-02-24T22:28:27.034Z,101345.52
2018-02-24T22:30:54.469Z,101348.30
2018-02-24T22:33:21.937Z,101349.02
2018-02-24T22:35:49.321Z,101351.56
2018-02-24T22:38:16.779Z,101350.55
2018-02-24T22:40:44.203Z,101353.98
2018-02-24T22:43:11.626Z,101358.73
2018-02-24T22:45:39.073Z,101363.69
2018-02-24T22:48:11.973Z,101370.46
2018-02-24T22:50:39.406Z,101378.67
2018-02-24T22:53:06.824Z,101373.53
2018-02-24T22:55:34.238Z,101375.06
2018-02-24T22:58:01.671Z,101369.77
2018-02-24T23:00:29.094Z,101373.09
2018-02-24T23:02:56.509Z,101377.48
2018-02-24T23:05:23.949Z,101377.21
2018-02-24T23:07:51.361Z,101380.67
2018-02-24T23:10:18.792Z,101377.11
2018-02-24T23:12:46.222Z,101376.65
2018-02-24T23:15:13.650Z,101376.38
2018-02-24T23:17:41.073Z,101374.73
2018-02-24T23:20:08.498Z,101375.79
2018-02-24T23:22:35.912Z,101374.35
2018-02-24T23:25:03.335Z,101370.61
2018-02-24T23:27:30.765Z,101369.62
2018-02-24T23:29:58.181Z,101371.26
2018-02-24T23:32:25.591Z,101378.13
2018-02-24T23:34:53.019Z,101371.34
2018-02-24T23:37:20.429Z,101373.89
2018-02-24T23:39:47.849Z,101375.63
2018-02-24T23:42:15.291Z,101377.81
2018-02-24T23:44:42.702Z,101368.28
2018-02-24T23:47:10.118Z,101370.64
2018-02-24T23:49:37.562Z,101365.51
2018-02-24T23:52:04.976Z,101361.38
2018-02-24T23:54:32.391Z,101368.81
2018-02-24T23:56:59.813Z,101362.03
2018-02-24T23:59:27.234Z,101361.34
